sensor_id;sensor_type;location;lat;lon;timestamp;temperature;humidity
44271;DHT22;29963;44.594;11.368;2023-04-01T00:01:55;14.60;99.90
44271;DHT22;29963;44.594;11.368;2023-04-01T00:04:21;14.60;99.90
44271;DHT22;29963;44.594;11.368;2023-04-01T00:06:47;14.50;99.90
44271;DHT22;29963;44.594;11.368;2023-04-01T00:09:13;14.50;99.90
44271;DHT22;29963;44.594;11.368;2023-04-01T00:11:39;14.40;99.90
44271;DHT22;29963;44.594;11.368;2023-04-01T00:14:06;14.40;99.90
44271;DHT22;29963;44.594;11.368;2023-04-01T00:16:32;14.40;99.90
44271;DHT22;29963;44.594;11.368;2023-04-01T00:18:58;14.40;99.90
44271;DHT22;29963;44.594;11.368;2023-04-01T00:21:25;14.30;99.90
44271;DHT22;29963;44.594;11.368;2023-04-01T00:23:51;14.20;99.90
44271;DHT22;29963;44.594;11.368;2023-04-01T00:26:17;14.20;99.90
44271;DHT22;29963;44.594;11.368;2023-04-01T00:28:46;14.10;99.90
44271;DHT22;29963;44.594;11.368;2023-04-01T00:31:12;14.10;99.90
44271;DHT22;29963;44.594;11.368;2023-04-01T00:33:38;14.00;99.90
44271;DHT22;29963;44.594;11.368;2023-04-01T00:36:12;14.00;99.90
44271;DHT22;29963;44.594;11.368;2023-04-01T00:38:38;13.90;99.90
44271;DHT22;29963;44.594;11.368;2023-04-01T00:41:05;13.90;99.90
44271;DHT22;29963;44.594;11.368;2023-04-01T00:43:31;13.80;99.90
44271;DHT22;29963;44.594;11.368;2023-04-01T00:45:57;13.60;99.90
44271;DHT22;29963;44.594;11.368;2023-04-01T00:48:24;13.50;99.90
44271;DHT22;29963;44.594;11.368;2023-04-01T00:51:06;13.50;99.90
44271;DHT22;29963;44.594;11.368;2023-04-01T00:53:34;13.50;99.90
44271;DHT22;29963;44.594;11.368;2023-04-01T00:56:05;13.50;99.90
44271;DHT22;29963;44.594;11.368;2023-04-01T00:58:35;13.60;99.90
44271;DHT22;29963;44.594;11.368;2023-04-01T01:01:04;13.60;99.90
44271;DHT22;29963;44.594;11.368;2023-04-01T01:03:30;13.60;99.90
44271;DHT22;29963;44.594;11.368;2023-04-01T01:08:35;13.60;99.90
44271;DHT22;29963;44.594;11.368;2023-04-01T01:11:08;13.60;99.90
44271;DHT22;29963;44.594;11.368;2023-04-01T01:13:56;13.50;99.90
44271;DHT22;29963;44.594;11.368;2023-04-01T01:16:30;13.50;99.90
44271;DHT22;29963;44.594;11.368;2023-04-01T01:21:46;13.30;99.90
44271;DHT22;29963;44.594;11.368;2023-04-01T01:24:42;13.30;99.90
44271;DHT22;29963;44.594;11.368;2023-04-01T01:27:15;13.20;99.90
44271;DHT22;29963;44.594;11.368;2023-04-01T01:32:41;13.20;99.90
44271;DHT22;29963;44.594;11.368;2023-04-01T01:38:00;13.00;99.90
44271;DHT22;29963;44.594;11.368;2023-04-01T01:40:28;13.00;99.90
44271;DHT22;29963;44.594;11.368;2023-04-01T01:43:01;13.00;99.90
44271;DHT22;29963;44.594;11.368;2023-04-01T01:45:29;13.00;99.90
44271;DHT22;29963;44.594;11.368;2023-04-01T01:47:56;13.00;99.90
44271;DHT22;29963;44.594;11.368;2023-04-01T01:50:23;13.00;99.90
44271;DHT22;29963;44.594;11.368;2023-04-01T01:55:34;13.00;99.90
44271;DHT22;29963;44.594;11.368;2023-04-01T01:58:13;13.00;99.90
44271;DHT22;29963;44.594;11.368;2023-04-01T02:00:44;12.90;99.90
44271;DHT22;29963;44.594;11.368;2023-04-01T02:03:13;12.90;99.90
44271;DHT22;29963;44.594;11.368;2023-04-01T02:05:39;12.90;99.90
44271;DHT22;29963;44.594;11.368;2023-04-01T02:11:11;12.80;99.90
44271;DHT22;29963;44.594;11.368;2023-04-01T02:13:53;12.80;99.90
44271;DHT22;29963;44.594;11.368;2023-04-01T02:17:29;12.80;99.90
44271;DHT22;29963;44.594;11.368;2023-04-01T02:19:29;12.80;99.90
44271;DHT22;29963;44.594;11.368;2023-04-01T02:22:00;12.80;99.90
44271;DHT22;29963;44.594;11.368;2023-04-01T02:24:28;12.70;99.90
44271;DHT22;29963;44.594;11.368;2023-04-01T02:26:56;12.70;99.90
44271;DHT22;29963;44.594;11.368;2023-04-01T02:29:23;12.70;99.90
44271;DHT22;29963;44.594;11.368;2023-04-01T02:31:50;12.70;99.90
44271;DHT22;29963;44.594;11.368;2023-04-01T02:34:17;12.70;99.90
44271;DHT22;29963;44.594;11.368;2023-04-01T02:36:42;12.70;99.90
44271;DHT22;29963;44.594;11.368;2023-04-01T02:39:08;12.70;99.90
44271;DHT22;29963;44.594;11.368;2023-04-01T02:41:44;12.70;99.90
44271;DHT22;29963;44.594;11.368;2023-04-01T02:44:12;12.70;99.90
44271;DHT22;29963;44.594;11.368;2023-04-01T02:46:39;12.60;99.90
44271;DHT22;29963;44.594;11.368;2023-04-01T02:49:05;12.60;99.90
44271;DHT22;29963;44.594;11.368;2023-04-01T02:51:32;12.50;99.90
44271;DHT22;29963;44.594;11.368;2023-04-01T02:53:58;12.50;99.90
44271;DHT22;29963;44.594;11.368;2023-04-01T02:56:23;12.50;99.90
44271;DHT22;29963;44.594;11.368;2023-04-01T02:58:49;12.50;99.90
44271;DHT22;29963;44.594;11.368;2023-04-01T03:01:14;12.40;99.90
44271;DHT22;29963;44.594;11.368;2023-04-01T03:03:41;12.40;99.90
44271;DHT22;29963;44.594;11.368;2023-04-01T03:06:08;12.50;99.90
44271;DHT22;29963;44.594;11.368;2023-04-01T03:08:33;12.40;99.90
44271;DHT22;29963;44.594;11.368;2023-04-01T03:10:59;12.30;99.90
44271;DHT22;29963;44.594;11.368;2023-04-01T03:13:25;12.30;99.90
44271;DHT22;29963;44.594;11.368;2023-04-01T03:15:51;12.30;99.90
44271;DHT22;29963;44.594;11.368;2023-04-01T03:18:16;12.20;99.90
44271;DHT22;29963;44.594;11.368;2023-04-01T03:20:42;12.20;99.90
44271;DHT22;29963;44.594;11.368;2023-04-01T03:23:08;12.10;99.90
44271;DHT22;29963;44.594;11.368;2023-04-01T03:25:33;12.10;99.90
44271;DHT22;29963;44.594;11.368;2023-04-01T03:27:59;12.10;99.90
44271;DHT22;29963;44.594;11.368;2023-04-01T03:30:26;12.00;99.90
44271;DHT22;29963;44.594;11.368;2023-04-01T03:32:52;12.00;99.90
44271;DHT22;29963;44.594;11.368;2023-04-01T03:35:18;12.00;99.90
44271;DHT22;29963;44.594;11.368;2023-04-01T03:37:43;11.90;99.90
44271;DHT22;29963;44.594;11.368;2023-04-01T03:40:10;12.00;99.90
44271;DHT22;29963;44.594;11.368;2023-04-01T03:42:35;12.00;99.90
44271;DHT22;29963;44.594;11.368;2023-04-01T03:45:02;11.90;99.90
44271;DHT22;29963;44.594;11.368;2023-04-01T03:47:29;11.90;99.90
44271;DHT22;29963;44.594;11.368;2023-04-01T03:49:54;11.90;99.90
44271;DHT22;29963;44.594;11.368;2023-04-01T03:52:20;11.90;99.90
44271;DHT22;29963;44.594;11.368;2023-04-01T03:54:46;12.00;99.90
44271;DHT22;29963;44.594;11.368;2023-04-01T03:57:11;12.00;99.90
44271;DHT22;29963;44.594;11.368;2023-04-01T03:59:37;11.90;99.90
44271;DHT22;29963;44.594;11.368;2023-04-01T04:02:03;11.90;99.90
44271;DHT22;29963;44.594;11.368;2023-04-01T04:04:28;11.90;99.90
44271;DHT22;29963;44.594;11.368;2023-04-01T04:06:54;11.90;99.90
44271;DHT22;29963;44.594;11.368;2023-04-01T04:09:20;11.90;99.90
44271;DHT22;29963;44.594;11.368;2023-04-01T04:11:46;11.90;99.90
44271;DHT22;29963;44.594;11.368;2023-04-01T04:14:11;11.80;99.90
44271;DHT22;29963;44.594;11.368;2023-04-01T04:16:37;11.80;99.90
44271;DHT22;29963;44.594;11.368;2023-04-01T04:19:03;11.70;99.90
44271;DHT22;29963;44.594;11.368;2023-04-01T04:21:29;11.80;99.90
44271;DHT22;29963;44.594;11.368;2023-04-01T04:23:54;11.80;99.90
44271;DHT22;29963;44.594;11.368;2023-04-01T04:26:20;11.80;99.90
44271;DHT22;29963;44.594;11.368;2023-04-01T04:28:46;11.70;99.90
44271;DHT22;29963;44.594;11.368;2023-04-01T04:31:12;11.60;99.90
44271;DHT22;29963;44.594;11.368;2023-04-01T04:33:43;11.60;99.90
44271;DHT22;29963;44.594;11.368;2023-04-01T04:36:08;11.60;99.90
44271;DHT22;29963;44.594;11.368;2023-04-01T04:38:34;11.60;99.90
44271;DHT22;29963;44.594;11.368;2023-04-01T04:40:59;11.60;99.90
44271;DHT22;29963;44.594;11.368;2023-04-01T04:43:25;11.60;99.90
44271;DHT22;29963;44.594;11.368;2023-04-01T04:45:51;11.70;99.90
44271;DHT22;29963;44.594;11.368;2023-04-01T04:51:01;11.60;99.90
44271;DHT22;29963;44.594;11.368;2023-04-01T04:53:27;11.50;99.90
44271;DHT22;29963;44.594;11.368;2023-04-01T04:55:53;11.50;99.90
44271;DHT22;29963;44.594;11.368;2023-04-01T04:58:19;11.50;99.90
44271;DHT22;29963;44.594;11.368;2023-04-01T05:00:45;11.40;99.90
44271;DHT22;29963;44.594;11.368;2023-04-01T05:03:11;11.40;99.90
44271;DHT22;29963;44.594;11.368;2023-04-01T05:05:38;11.40;99.90
44271;DHT22;29963;44.594;11.368;2023-04-01T05:08:03;11.30;99.90
44271;DHT22;29963;44.594;11.368;2023-04-01T05:10:29;11.30;99.90
44271;DHT22;29963;44.594;11.368;2023-04-01T05:12:55;11.20;99.90
44271;DHT22;29963;44.594;11.368;2023-04-01T05:15:21;11.10;99.90
44271;DHT22;29963;44.594;11.368;2023-04-01T05:17:47;11.10;99.90
44271;DHT22;29963;44.594;11.368;2023-04-01T05:20:14;11.10;99.90
44271;DHT22;29963;44.594;11.368;2023-04-01T05:22:40;11.20;99.90
44271;DHT22;29963;44.594;11.368;2023-04-01T05:25:06;11.20;99.90
44271;DHT22;29963;44.594;11.368;2023-04-01T05:27:31;11.20;99.90
44271;DHT22;29963;44.594;11.368;2023-04-01T05:29:58;11.20;99.90
44271;DHT22;29963;44.594;11.368;2023-04-01T05:32:23;11.20;99.90
44271;DHT22;29963;44.594;11.368;2023-04-01T05:34:52;11.20;99.90
44271;DHT22;29963;44.594;11.368;2023-04-01T05:37:19;11.10;99.90
44271;DHT22;29963;44.594;11.368;2023-04-01T05:39:44;11.10;99.90
44271;DHT22;29963;44.594;11.368;2023-04-01T05:42:10;11.10;99.90
44271;DHT22;29963;44.594;11.368;2023-04-01T05:44:36;11.10;99.90
44271;DHT22;29963;44.594;11.368;2023-04-01T05:47:02;11.10;99.90
44271;DHT22;29963;44.594;11.368;2023-04-01T05:49:28;11.10;99.90
44271;DHT22;29963;44.594;11.368;2023-04-01T05:51:54;11.20;99.90
44271;DHT22;29963;44.594;11.368;2023-04-01T05:54:20;11.30;99.90
44271;DHT22;29963;44.594;11.368;2023-04-01T05:56:46;11.30;99.90
44271;DHT22;29963;44.594;11.368;2023-04-01T05:59:12;11.30;99.90
44271;DHT22;29963;44.594;11.368;2023-04-01T06:01:38;11.30;99.90
44271;DHT22;29963;44.594;11.368;2023-04-01T06:04:03;11.40;99.90
44271;DHT22;29963;44.594;11.368;2023-04-01T06:06:31;11.40;99.90
44271;DHT22;29963;44.594;11.368;2023-04-01T06:09:21;11.40;99.90
44271;DHT22;29963;44.594;11.368;2023-04-01T06:20:33;11.50;99.90
44271;DHT22;29963;44.594;11.368;2023-04-01T06:34:32;11.90;99.90
44271;DHT22;29963;44.594;11.368;2023-04-01T06:42:41;12.20;99.90
44271;DHT22;29963;44.594;11.368;2023-04-01T06:56:05;12.50;99.90
44271;DHT22;29963;44.594;11.368;2023-04-01T06:58:39;12.60;99.90
44271;DHT22;29963;44.594;11.368;2023-04-01T07:01:10;12.70;99.90
44271;DHT22;29963;44.594;11.368;2023-04-01T07:03:49;12.80;99.90
44271;DHT22;29963;44.594;11.368;2023-04-01T07:06:28;12.80;99.90
44271;DHT22;29963;44.594;11.368;2023-04-01T07:09:02;12.80;99.90
44271;DHT22;29963;44.594;11.368;2023-04-01T07:11:32;12.80;99.90
44271;DHT22;29963;44.594;11.368;2023-04-01T07:14:02;12.90;99.90
44271;DHT22;29963;44.594;11.368;2023-04-01T07:16:38;13.00;99.90
44271;DHT22;29963;44.594;11.368;2023-04-01T07:21:49;13.10;99.90
44271;DHT22;29963;44.594;11.368;2023-04-01T07:24:37;13.20;99.90
44271;DHT22;29963;44.594;11.368;2023-04-01T07:27:10;13.20;99.90
44271;DHT22;29963;44.594;11.368;2023-04-01T07:29:35;13.20;99.90
44271;DHT22;29963;44.594;11.368;2023-04-01T07:37:57;13.30;99.90
44271;DHT22;29963;44.594;11.368;2023-04-01T07:40:26;13.40;99.90
44271;DHT22;29963;44.594;11.368;2023-04-01T07:46:03;13.50;99.90
44271;DHT22;29963;44.594;11.368;2023-04-01T07:53:43;13.70;99.90
44271;DHT22;29963;44.594;11.368;2023-04-01T07:59:17;13.90;99.90
44271;DHT22;29963;44.594;11.368;2023-04-01T08:01:51;13.90;99.90
44271;DHT22;29963;44.594;11.368;2023-04-01T08:04:32;14.00;99.90
44271;DHT22;29963;44.594;11.368;2023-04-01T08:07:07;14.10;99.90
44271;DHT22;29963;44.594;11.368;2023-04-01T08:14:55;14.40;99.90
44271;DHT22;29963;44.594;11.368;2023-04-01T08:17:36;14.50;99.90
44271;DHT22;29963;44.594;11.368;2023-04-01T08:20:08;14.60;99.90
44271;DHT22;29963;44.594;11.368;2023-04-01T08:22:37;14.60;99.90
44271;DHT22;29963;44.594;11.368;2023-04-01T08:25:06;14.70;99.90
44271;DHT22;29963;44.594;11.368;2023-04-01T08:27:39;14.70;99.90
44271;DHT22;29963;44.594;11.368;2023-04-01T08:33:00;14.90;99.90
44271;DHT22;29963;44.594;11.368;2023-04-01T08:38:39;15.00;99.90
44271;DHT22;29963;44.594;11.368;2023-04-01T08:41:18;15.00;99.90
44271;DHT22;29963;44.594;11.368;2023-04-01T08:44:04;15.10;99.90
44271;DHT22;29963;44.594;11.368;2023-04-01T08:52:35;15.20;99.90
44271;DHT22;29963;44.594;11.368;2023-04-01T08:58:07;15.30;99.90
44271;DHT22;29963;44.594;11.368;2023-04-01T09:00:53;15.30;99.90
44271;DHT22;29963;44.594;11.368;2023-04-01T09:06:33;15.40;99.90
44271;DHT22;29963;44.594;11.368;2023-04-01T09:09:13;15.50;99.90
44271;DHT22;29963;44.594;11.368;2023-04-01T09:34:38;15.90;99.90
44271;DHT22;29963;44.594;11.368;2023-04-01T09:42:45;15.90;99.90
44271;DHT22;29963;44.594;11.368;2023-04-01T09:59:38;16.30;99.90
44271;DHT22;29963;44.594;11.368;2023-04-01T10:10:57;16.70;99.90
44271;DHT22;29963;44.594;11.368;2023-04-01T10:14:04;16.90;99.90
44271;DHT22;29963;44.594;11.368;2023-04-01T10:17:03;17.00;99.90
44271;DHT22;29963;44.594;11.368;2023-04-01T10:25:10;17.10;99.90
44271;DHT22;29963;44.594;11.368;2023-04-01T11:26:04;18.40;93.00
44271;DHT22;29963;44.594;11.368;2023-04-01T11:29:00;18.50;93.20
44271;DHT22;29963;44.594;11.368;2023-04-01T11:40:17;18.70;89.90
44271;DHT22;29963;44.594;11.368;2023-04-01T11:43:24;18.80;90.00
44271;DHT22;29963;44.594;11.368;2023-04-01T11:46:10;18.90;89.50
44271;DHT22;29963;44.594;11.368;2023-04-01T11:48:41;19.00;88.40
44271;DHT22;29963;44.594;11.368;2023-04-01T12:05:10;19.40;88.70
44271;DHT22;29963;44.594;11.368;2023-04-01T12:45:27;19.90;77.00
44271;DHT22;29963;44.594;11.368;2023-04-01T12:48:23;20.00;74.80
44271;DHT22;29963;44.594;11.368;2023-04-01T12:53:58;20.10;71.20
44271;DHT22;29963;44.594;11.368;2023-04-01T12:56:49;20.10;72.20
44271;DHT22;29963;44.594;11.368;2023-04-01T12:59:26;20.20;70.60
44271;DHT22;29963;44.594;11.368;2023-04-01T13:06:19;20.30;64.40
44271;DHT22;29963;44.594;11.368;2023-04-01T13:36:41;20.70;61.70
44271;DHT22;29963;44.594;11.368;2023-04-01T13:43:19;20.90;62.80
44271;DHT22;29963;44.594;11.368;2023-04-01T13:45:24;21.00;64.40
44271;DHT22;29963;44.594;11.368;2023-04-01T13:59:02;21.50;59.90
44271;DHT22;29963;44.594;11.368;2023-04-01T14:01:52;21.60;62.40
44271;DHT22;29963;44.594;11.368;2023-04-01T14:23:25;22.90;60.10
44271;DHT22;29963;44.594;11.368;2023-04-01T14:50:27;24.90;56.20
44271;DHT22;29963;44.594;11.368;2023-04-01T14:55:31;25.40;55.40
44271;DHT22;29963;44.594;11.368;2023-04-01T14:57:59;25.90;54.60
44271;DHT22;29963;44.594;11.368;2023-04-01T15:00:26;26.90;55.20
44271;DHT22;29963;44.594;11.368;2023-04-01T15:05:32;29.50;51.00
44271;DHT22;29963;44.594;11.368;2023-04-01T15:08:18;30.70;47.60
44271;DHT22;29963;44.594;11.368;2023-04-01T15:16:19;32.20;43.40
44271;DHT22;29963;44.594;11.368;2023-04-01T15:21:17;32.80;39.70
44271;DHT22;29963;44.594;11.368;2023-04-01T15:24:07;32.90;40.60
44271;DHT22;29963;44.594;11.368;2023-04-01T15:32:22;33.20;38.10
44271;DHT22;29963;44.594;11.368;2023-04-01T16:00:28;34.00;34.30
44271;DHT22;29963;44.594;11.368;2023-04-01T16:03:13;34.40;33.00
44271;DHT22;29963;44.594;11.368;2023-04-01T16:19:56;32.70;32.30
44271;DHT22;29963;44.594;11.368;2023-04-01T16:22:34;32.90;32.60
44271;DHT22;29963;44.594;11.368;2023-04-01T16:28:03;33.60;34.60
44271;DHT22;29963;44.594;11.368;2023-04-01T16:30:38;33.70;34.80
44271;DHT22;29963;44.594;11.368;2023-04-01T16:35:40;33.80;34.00
44271;DHT22;29963;44.594;11.368;2023-04-01T16:43:25;33.70;34.50
44271;DHT22;29963;44.594;11.368;2023-04-01T16:46:07;33.50;35.10
44271;DHT22;29963;44.594;11.368;2023-04-01T16:49:27;32.60;35.50
44271;DHT22;29963;44.594;11.368;2023-04-01T16:52:04;31.10;37.50
44271;DHT22;29963;44.594;11.368;2023-04-01T16:54:57;29.70;40.00
44271;DHT22;29963;44.594;11.368;2023-04-01T16:57:48;28.00;39.00
44271;DHT22;29963;44.594;11.368;2023-04-01T17:00:30;26.40;39.90
44271;DHT22;29963;44.594;11.368;2023-04-01T17:03:21;25.30;40.60
44271;DHT22;29963;44.594;11.368;2023-04-01T17:06:12;24.60;42.00
44271;DHT22;29963;44.594;11.368;2023-04-01T17:12:03;23.80;43.70
44271;DHT22;29963;44.594;11.368;2023-04-01T17:28:34;22.70;47.10
44271;DHT22;29963;44.594;11.368;2023-04-01T17:31:12;22.30;48.40
44271;DHT22;29963;44.594;11.368;2023-04-01T17:41:54;21.10;51.30
44271;DHT22;29963;44.594;11.368;2023-04-01T17:52:42;20.50;53.50
44271;DHT22;29963;44.594;11.368;2023-04-01T17:58:07;20.20;54.70
44271;DHT22;29963;44.594;11.368;2023-04-01T18:05:59;20.20;55.60
44271;DHT22;29963;44.594;11.368;2023-04-01T18:08:50;20.00;55.70
44271;DHT22;29963;44.594;11.368;2023-04-01T18:11:39;19.70;56.50
44271;DHT22;29963;44.594;11.368;2023-04-01T18:14:36;19.50;57.40
44271;DHT22;29963;44.594;11.368;2023-04-01T18:26:04;18.50;60.70
44271;DHT22;29963;44.594;11.368;2023-04-01T18:33:34;18.20;62.20
44271;DHT22;29963;44.594;11.368;2023-04-01T18:36:38;18.00;63.00
44271;DHT22;29963;44.594;11.368;2023-04-01T18:47:17;17.80;64.80
44271;DHT22;29963;44.594;11.368;2023-04-01T18:49:59;17.80;65.20
44271;DHT22;29963;44.594;11.368;2023-04-01T18:52:43;17.70;64.90
44271;DHT22;29963;44.594;11.368;2023-04-01T18:55:29;17.70;64.60
44271;DHT22;29963;44.594;11.368;2023-04-01T18:58:14;17.70;64.90
44271;DHT22;29963;44.594;11.368;2023-04-01T19:00:48;17.60;65.10
44271;DHT22;29963;44.594;11.368;2023-04-01T19:03:39;17.60;65.10
44271;DHT22;29963;44.594;11.368;2023-04-01T19:08:47;17.50;65.30
44271;DHT22;29963;44.594;11.368;2023-04-01T19:11:32;17.50;65.50
44271;DHT22;29963;44.594;11.368;2023-04-01T19:17:17;17.60;65.50
44271;DHT22;29963;44.594;11.368;2023-04-01T19:19:54;17.60;65.20
44271;DHT22;29963;44.594;11.368;2023-04-01T19:25:28;17.40;66.20
44271;DHT22;29963;44.594;11.368;2023-04-01T19:37:18;17.30;68.00
44271;DHT22;29963;44.594;11.368;2023-04-01T19:42:48;17.40;68.50
44271;DHT22;29963;44.594;11.368;2023-04-01T19:48:30;17.00;69.40
44271;DHT22;29963;44.594;11.368;2023-04-01T19:51:21;16.90;70.20
44271;DHT22;29963;44.594;11.368;2023-04-01T19:54:14;16.90;70.40
44271;DHT22;29963;44.594;11.368;2023-04-01T19:56:57;16.70;71.10
44271;DHT22;29963;44.594;11.368;2023-04-01T19:59:55;16.70;71.30
44271;DHT22;29963;44.594;11.368;2023-04-01T20:07:55;16.40;73.30
44271;DHT22;29963;44.594;11.368;2023-04-01T20:13:33;16.30;74.70
44271;DHT22;29963;44.594;11.368;2023-04-01T20:16:07;16.30;75.30
44271;DHT22;29963;44.594;11.368;2023-04-01T20:18:40;16.30;75.80
44271;DHT22;29963;44.594;11.368;2023-04-01T20:26:40;16.10;77.60
44271;DHT22;29963;44.594;11.368;2023-04-01T20:38:18;16.10;78.90
44271;DHT22;29963;44.594;11.368;2023-04-01T20:40:45;16.10;79.20
44271;DHT22;29963;44.594;11.368;2023-04-01T20:48:45;15.90;80.50
44271;DHT22;29963;44.594;11.368;2023-04-01T20:51:29;15.90;80.90
44271;DHT22;29963;44.594;11.368;2023-04-01T20:54:14;15.90;81.40
44271;DHT22;29963;44.594;11.368;2023-04-01T20:57:14;15.90;81.60
44271;DHT22;29963;44.594;11.368;2023-04-01T21:08:14;15.90;83.40
44271;DHT22;29963;44.594;11.368;2023-04-01T21:13:33;15.80;84.60
44271;DHT22;29963;44.594;11.368;2023-04-01T21:16:36;15.80;84.90
44271;DHT22;29963;44.594;11.368;2023-04-01T21:27:07;15.80;86.60
44271;DHT22;29963;44.594;11.368;2023-04-01T21:29:51;15.80;87.10
44271;DHT22;29963;44.594;11.368;2023-04-01T22:17:52;15.20;92.10
44271;DHT22;29963;44.594;11.368;2023-04-01T22:20:27;15.30;92.10
44271;DHT22;29963;44.594;11.368;2023-04-01T22:28:24;15.30;92.20
44271;DHT22;29963;44.594;11.368;2023-04-01T22:30:58;15.30;92.20
44271;DHT22;29963;44.594;11.368;2023-04-01T22:33:30;15.30;92.40
44271;DHT22;29963;44.594;11.368;2023-04-01T22:36:20;15.30;92.50
44271;DHT22;29963;44.594;11.368;2023-04-01T22:39:00;15.30;92.60
44271;DHT22;29963;44.594;11.368;2023-04-01T22:44:57;15.30;92.80
44271;DHT22;29963;44.594;11.368;2023-04-01T22:50:18;15.20;93.10
44271;DHT22;29963;44.594;11.368;2023-04-01T22:52:47;15.20;93.30
44271;DHT22;29963;44.594;11.368;2023-04-01T22:55:24;15.20;93.40
44271;DHT22;29963;44.594;11.368;2023-04-01T22:57:54;15.10;93.60
44271;DHT22;29963;44.594;11.368;2023-04-01T23:00:29;15.10;93.70
44271;DHT22;29963;44.594;11.368;2023-04-01T23:05:55;15.10;94.20
44271;DHT22;29963;44.594;11.368;2023-04-01T23:24:52;15.00;95.00
44271;DHT22;29963;44.594;11.368;2023-04-01T23:29:52;14.90;95.20
44271;DHT22;29963;44.594;11.368;2023-04-01T23:32:25;14.90;95.20
44271;DHT22;29963;44.594;11.368;2023-04-01T23:34:56;14.90;95.20
44271;DHT22;29963;44.594;11.368;2023-04-01T23:37:24;14.90;95.20
44271;DHT22;29963;44.594;11.368;2023-04-01T23:42:32;14.90;95.40
44271;DHT22;29963;44.594;11.368;2023-04-01T23:45:11;14.90;95.40
44271;DHT22;29963;44.594;11.368;2023-04-01T23:47:39;14.90;95.40
44271;DHT22;29963;44.594;11.368;2023-04-01T23:50:16;14.90;95.50
44271;DHT22;29963;44.594;11.368;2023-04-01T23:52:48;14.90;95.60
44271;DHT22;29963;44.594;11.368;2023-04-01T23:55:27;14.90;95.60
